Aurora, Oregon
Current Conditions -  °F | °C
As of 7:53 AM on Friday 19 Dec 2014 (Local Time) from KUAO Reporting Station
Light Rain Light Rain  
Wind Chill: 40°   Ceiling: 3200
Heat Index: 45°   Visibility: 10mi
Dew Point: 43°   Wind: 9mph
Humidity: 93%   Direction: 190°S
Pressure: 29.98"   Gusts: NA
Location:  45.23°N, 122.76°W
Report Text: KUAO 191553Z AUTO 19008KT 10SM -RA BKN032 OVC041 07/06 A2998 RMK AO2 SLP152 P0001 T00720061
Loading
Personal Weather Stations






























Interactive Weather Map New forecast layout! Learn more

10-Day Weather Forecast

Advertisements
Track Severe Weather on mobile